Arabia, CA

1:31 PM PDT on August 27, 2016 (GMT -0700)
APRSWXNET | | Change Station

Elev 110 ft 33.67 °N, 116.15 °W | Updated 48 minutes ago

Clear
Clear
95 °F
Feels Like 95 °F
N
6
Wind Variable Wind from SSE
Gusts 12.0 mph

Today
High -- | Low -- °F
--% Chance of Precip.
Yesterday
High -- | Low -- °F
Precip. -- in
Pressure 29.83 in
Visibility 10.0 miles
Clouds Clear
Heat Index 95 °F
Dew Point 60 °F
Humidity 31%
Rainfall in
Snow Depth Not available.
6:15 AM 7:15 PM
Waning Crescent, 22% visible
METAR KTRM 271952Z AUTO VRB04KT 10SM CLR 37/13 A2982 RMK AO2 SLP102 T03720128 TSNO
Pressure 29.83 in
Visibility 10.0 miles
Clouds Clear
Heat Index 95 °F
Dew Point 60 °F
Humidity 31%
Rainfall in
Snow Depth Not available.
6:15 AM 7:15 PM
Waning Crescent, 22% visible
METAR KTRM 271952Z AUTO VRB04KT 10SM CLR 37/13 A2982 RMK AO2 SLP102 T03720128 TSNO

10-Day Weather Forecast

Almanac

Astronomy

Aug. 27, 2016 Rise Set
Actual Time
Civil Twilight
Nautical Twilight
Astronomical Twilight
Moon
Length of Visible Light
Length of Day
Tomorrow will be .
, % of the Moon is Illuminated

Today's Extremes

State Highs State Lows

Community

WunderPhotos

Upload Photos

1,935,434 photos uploaded!

WunderBlog® & News

Nearby

Air Quality

  Air Quality AQ Index Pollutant
Not available.

Snow Depth

Station Depth Elevation

Earthquake Activity

City Distance Mag. Time & Date
Minimum magnitude displayed is 2.5.

Coastal Water Temperatures

Place Temperature

Stations

Nearby Weather Stations

Station Location Temp. Windchill Dew Point Humidity Wind Precip. Elev Updated Type
                   

Watches & Warnings

There are currently no watches in effect.